createdAt,value
2019-01-13T00:00:51.218Z,997.29
2019-01-13T00:01:51.131Z,997.30
2019-01-13T00:02:51.046Z,997.24
2019-01-13T00:03:50.956Z,997.25
2019-01-13T00:04:50.871Z,997.25
2019-01-13T00:05:50.796Z,997.24
2019-01-13T00:06:50.706Z,997.33
2019-01-13T00:07:50.623Z,997.18
2019-01-13T00:08:50.532Z,997.22
2019-01-13T00:09:50.444Z,997.25
2019-01-13T00:10:50.356Z,997.20
2019-01-13T00:11:50.271Z,997.20
2019-01-13T00:12:50.196Z,997.15
2019-01-13T00:13:50.106Z,997.18
2019-01-13T00:14:50.020Z,997.11
2019-01-13T00:15:49.932Z,997.20
2019-01-13T00:16:49.846Z,997.16
2019-01-13T00:17:49.757Z,997.09
2019-01-13T00:18:49.682Z,997.17
2019-01-13T00:19:49.596Z,997.20
2019-01-13T00:20:49.510Z,997.08
2019-01-13T00:21:49.420Z,997.16
2019-01-13T00:22:49.334Z,997.11
2019-01-13T00:23:49.247Z,997.25
2019-01-13T00:24:49.172Z,997.13
2019-01-13T00:25:49.087Z,997.13
2019-01-13T00:26:48.998Z,997.13
2019-01-13T00:27:48.910Z,997.14
2019-01-13T00:28:48.821Z,997.13
2019-01-13T00:29:48.735Z,997.18
2019-01-13T00:30:48.658Z,997.23
2019-01-13T00:31:48.573Z,997.25
2019-01-13T00:32:48.487Z,997.27
2019-01-13T00:33:48.406Z,997.26
2019-01-13T00:34:48.322Z,997.30
2019-01-13T00:35:48.234Z,997.27
2019-01-13T00:36:48.147Z,997.38
2019-01-13T00:37:48.062Z,997.27
2019-01-13T00:38:47.984Z,997.28
2019-01-13T00:39:47.885Z,997.30
2019-01-13T00:40:48.098Z,997.28
2019-01-13T00:41:47.723Z,997.40
2019-01-13T00:42:47.693Z,997.33
2019-01-13T00:43:47.547Z,997.36
2019-01-13T00:44:47.459Z,997.39
2019-01-13T00:45:47.373Z,997.34
2019-01-13T00:46:47.288Z,997.39
2019-01-13T00:47:47.210Z,997.34
2019-01-13T00:48:47.126Z,997.38
2019-01-13T00:49:47.035Z,997.41
2019-01-13T00:50:46.950Z,997.39
2019-01-13T00:51:46.877Z,997.31
2019-01-13T00:52:46.773Z,997.39
2019-01-13T00:53:46.704Z,997.35
2019-01-13T00:54:46.614Z,997.42
2019-01-13T00:55:46.525Z,997.39
2019-01-13T00:56:46.439Z,997.39
2019-01-13T00:57:46.352Z,997.29
2019-01-13T00:58:46.274Z,997.46
2019-01-13T00:59:46.187Z,997.36
2019-01-13T01:00:46.101Z,997.37
2019-01-13T01:01:46.012Z,997.34
2019-01-13T01:02:45.925Z,997.33
2019-01-13T01:03:45.837Z,997.32
2019-01-13T01:04:45.762Z,997.37
2019-01-13T01:05:45.675Z,997.25
2019-01-13T01:06:45.601Z,997.30
2019-01-13T01:07:47.050Z,997.24
2019-01-13T01:08:45.412Z,997.24
2019-01-13T01:09:45.326Z,997.29
2019-01-13T01:10:45.239Z,997.21
2019-01-13T01:11:45.151Z,997.22
2019-01-13T01:12:45.077Z,997.23
2019-01-13T01:13:44.990Z,997.20
2019-01-13T01:14:44.906Z,997.19
2019-01-13T01:15:44.815Z,997.11
2019-01-13T01:16:44.727Z,997.13
2019-01-13T01:17:44.639Z,997.25
2019-01-13T01:18:44.563Z,997.24
2019-01-13T01:19:44.477Z,997.24
2019-01-13T01:20:44.389Z,997.25
2019-01-13T01:21:44.304Z,997.21
2019-01-13T01:22:44.217Z,997.24
2019-01-13T01:23:44.127Z,997.31
2019-01-13T01:24:44.040Z,997.24
2019-01-13T01:25:43.964Z,997.25
2019-01-13T01:26:43.877Z,997.29
2019-01-13T01:27:43.789Z,997.31
2019-01-13T01:28:44.418Z,997.29
2019-01-13T01:29:43.617Z,997.28
2019-01-13T01:30:43.528Z,997.25
2019-01-13T01:31:43.454Z,997.31
2019-01-13T01:32:43.365Z,997.29
2019-01-13T01:33:43.282Z,997.25
2019-01-13T01:34:43.193Z,997.30
2019-01-13T01:35:43.104Z,997.26
2019-01-13T01:36:43.016Z,997.27
2019-01-13T01:37:42.929Z,997.30
2019-01-13T01:38:42.859Z,997.28
2019-01-13T01:39:42.766Z,997.38
2019-01-13T01:40:42.680Z,997.33
2019-01-13T01:41:42.591Z,997.38
2019-01-13T01:42:42.508Z,997.33
2019-01-13T01:43:42.417Z,997.46
2019-01-13T01:44:42.342Z,997.39
2019-01-13T01:45:42.255Z,997.40
2019-01-13T01:46:42.179Z,997.48
2019-01-13T01:47:42.080Z,997.44
2019-01-13T01:48:41.991Z,997.50
2019-01-13T01:49:41.905Z,997.54
2019-01-13T01:50:41.818Z,997.51
2019-01-13T01:51:41.742Z,997.49
2019-01-13T01:52:41.655Z,997.54
2019-01-13T01:53:41.571Z,997.46
2019-01-13T01:54:41.480Z,997.42
2019-01-13T01:55:41.392Z,997.52
2019-01-13T01:56:41.307Z,997.55
2019-01-13T01:57:41.233Z,997.46
2019-01-13T01:58:41.146Z,997.53
2019-01-13T01:59:41.058Z,997.50
2019-01-13T02:00:40.984Z,997.46
2019-01-13T02:01:40.881Z,997.49
2019-01-13T02:02:40.793Z,997.40
2019-01-13T02:03:40.706Z,997.41
2019-01-13T02:04:40.632Z,997.46
2019-01-13T02:05:40.580Z,997.40
2019-01-13T02:06:40.458Z,997.44
2019-01-13T02:07:40.369Z,997.43
2019-01-13T02:08:40.282Z,997.44
2019-01-13T02:09:40.196Z,997.40
2019-01-13T02:10:40.119Z,997.41
2019-01-13T02:11:40.032Z,997.43
2019-01-13T02:12:39.944Z,997.45
2019-01-13T02:13:39.858Z,997.46
2019-01-13T02:14:39.772Z,997.47
2019-01-13T02:15:39.683Z,997.49
2019-01-13T02:16:39.608Z,997.44
2019-01-13T02:17:39.520Z,997.44
2019-01-13T02:18:39.433Z,997.39
2019-01-13T02:19:39.345Z,997.38
2019-01-13T02:20:39.259Z,997.42
2019-01-13T02:21:39.171Z,997.43
2019-01-13T02:22:39.097Z,997.42
2019-01-13T02:23:39.008Z,997.44
2019-01-13T02:24:38.933Z,997.43
2019-01-13T02:25:38.834Z,997.41
2019-01-13T02:26:38.748Z,997.45
2019-01-13T02:27:38.661Z,997.48
2019-01-13T02:28:38.583Z,997.48
2019-01-13T02:29:38.497Z,997.52
2019-01-13T02:30:38.411Z,997.51
2019-01-13T02:31:38.326Z,997.47
2019-01-13T02:32:38.238Z,997.51
2019-01-13T02:33:38.147Z,997.48
2019-01-13T02:34:38.077Z,997.46
2019-01-13T02:35:37.986Z,997.44
2019-01-13T02:36:37.911Z,997.41
2019-01-13T02:37:37.809Z,997.44
2019-01-13T02:38:37.722Z,997.42
2019-01-13T02:39:37.639Z,997.41
2019-01-13T02:40:37.861Z,997.39
2019-01-13T02:41:37.473Z,997.39
2019-01-13T02:42:37.386Z,997.38
2019-01-13T02:43:37.310Z,997.37
2019-01-13T02:44:37.210Z,997.43
2019-01-13T02:45:37.127Z,997.37
2019-01-13T02:46:37.048Z,997.39
2019-01-13T02:47:36.963Z,997.29
2019-01-13T02:48:36.873Z,997.32
2019-01-13T02:49:36.790Z,997.31
2019-01-13T02:50:36.712Z,997.39
2019-01-13T02:51:36.613Z,997.33
2019-01-13T02:52:36.542Z,997.33
2019-01-13T02:53:36.450Z,997.29
2019-01-13T02:54:36.362Z,997.32
2019-01-13T02:55:36.273Z,997.35
2019-01-13T02:56:36.188Z,997.37
2019-01-13T02:57:36.112Z,997.38
2019-01-13T02:58:36.026Z,997.36
2019-01-13T02:59:35.945Z,997.35
2019-01-13T03:00:35.851Z,997.35
2019-01-13T03:01:35.762Z,997.37
2019-01-13T03:02:35.677Z,997.30
2019-01-13T03:03:35.588Z,997.32
2019-01-13T03:04:35.513Z,997.29
2019-01-13T03:05:35.428Z,997.30
2019-01-13T03:06:35.343Z,997.25
2019-01-13T03:07:35.250Z,997.25
2019-01-13T03:08:35.164Z,997.24
2019-01-13T03:09:35.078Z,997.23
2019-01-13T03:10:35.001Z,997.26
2019-01-13T03:11:34.915Z,997.27
2019-01-13T03:12:34.838Z,997.27
2019-01-13T03:13:34.738Z,997.23
2019-01-13T03:14:34.653Z,997.25
2019-01-13T03:15:34.864Z,997.27
2019-01-13T03:16:34.490Z,997.27
2019-01-13T03:17:34.412Z,997.30
2019-01-13T03:18:34.314Z,997.30
2019-01-13T03:19:34.234Z,997.33
2019-01-13T03:20:34.140Z,997.30
2019-01-13T03:21:34.051Z,997.27
2019-01-13T03:22:33.978Z,997.24
2019-01-13T03:23:33.890Z,997.23
2019-01-13T03:24:33.804Z,997.20
2019-01-13T03:25:33.721Z,997.21
2019-01-13T03:26:33.628Z,997.20
2019-01-13T03:27:33.550Z,997.19
2019-01-13T03:28:33.465Z,997.19
2019-01-13T03:29:33.382Z,997.21
2019-01-13T03:30:33.292Z,997.25
2019-01-13T03:31:33.206Z,997.17
2019-01-13T03:32:33.119Z,997.17
2019-01-13T03:33:33.029Z,997.17
2019-01-13T03:34:32.953Z,997.20
2019-01-13T03:35:32.867Z,997.22
2019-01-13T03:36:32.778Z,997.21
2019-01-13T03:37:32.693Z,997.16
2019-01-13T03:38:32.607Z,997.25
2019-01-13T03:39:32.526Z,997.22
2019-01-13T03:40:32.428Z,997.23
2019-01-13T03:41:32.354Z,997.20
2019-01-13T03:42:32.268Z,997.21
2019-01-13T03:43:32.179Z,997.19
2019-01-13T03:44:32.091Z,997.19
2019-01-13T03:45:32.005Z,997.19
2019-01-13T03:46:31.928Z,997.24
2019-01-13T03:47:31.846Z,997.19
2019-01-13T03:48:31.754Z,997.17
2019-01-13T03:49:31.668Z,997.21
2019-01-13T03:50:31.579Z,997.16
2019-01-13T03:51:31.501Z,997.13
2019-01-13T03:52:31.406Z,997.13
2019-01-13T03:53:31.329Z,997.17
2019-01-13T03:54:31.245Z,997.12
2019-01-13T03:55:31.156Z,997.10
2019-01-13T03:56:31.069Z,997.07
2019-01-13T03:57:30.980Z,997.11
2019-01-13T03:58:30.894Z,997.12
2019-01-13T03:59:30.818Z,997.06
2019-01-13T04:00:31.032Z,997.01
2019-01-13T04:01:30.645Z,997.14
2019-01-13T04:02:30.569Z,997.10
2019-01-13T04:03:30.469Z,997.10
2019-01-13T04:04:30.381Z,997.11
2019-01-13T04:05:30.298Z,997.09
2019-01-13T04:06:30.219Z,997.12
2019-01-13T04:07:30.131Z,997.04
2019-01-13T04:08:30.045Z,997.09
2019-01-13T04:09:29.958Z,997.11
2019-01-13T04:10:29.870Z,997.06
2019-01-13T04:11:29.784Z,997.09
2019-01-13T04:12:29.709Z,997.11
2019-01-13T04:13:29.621Z,997.08
2019-01-13T04:14:29.532Z,997.06
2019-01-13T04:15:29.445Z,997.05
2019-01-13T04:16:29.357Z,997.08
2019-01-13T04:17:29.272Z,997.05
2019-01-13T04:18:29.195Z,997.05
2019-01-13T04:19:29.107Z,996.97
2019-01-13T04:20:29.023Z,996.97
2019-01-13T04:21:28.935Z,996.96
2019-01-13T04:22:28.846Z,996.88
2019-01-13T04:23:28.758Z,996.87
2019-01-13T04:24:28.683Z,996.88
2019-01-13T04:25:28.596Z,996.86
2019-01-13T04:26:28.509Z,996.88
2019-01-13T04:27:28.422Z,996.88
2019-01-13T04:28:28.340Z,996.88
2019-01-13T04:29:28.249Z,996.89
2019-01-13T04:30:28.173Z,996.90
2019-01-13T04:31:28.084Z,996.86
2019-01-13T04:32:27.999Z,996.87
2019-01-13T04:33:27.912Z,996.89
2019-01-13T04:34:27.822Z,996.83
2019-01-13T04:35:27.735Z,996.83
2019-01-13T04:36:27.662Z,996.82
2019-01-13T04:37:27.572Z,996.79
2019-01-13T04:38:27.485Z,996.82
2019-01-13T04:39:27.398Z,996.74
2019-01-13T04:40:27.311Z,996.76
2019-01-13T04:41:27.224Z,996.74
2019-01-13T04:42:27.148Z,996.71
2019-01-13T04:43:27.060Z,996.69
2019-01-13T04:44:26.975Z,996.66
2019-01-13T04:45:26.889Z,996.65
2019-01-13T04:46:26.799Z,996.62
2019-01-13T04:47:26.725Z,996.71
2019-01-13T04:48:26.636Z,996.66
2019-01-13T04:49:26.551Z,996.69
2019-01-13T04:50:26.461Z,996.69
2019-01-13T04:51:26.374Z,996.70
2019-01-13T04:52:26.286Z,996.71
2019-01-13T04:53:26.212Z,996.68
2019-01-13T04:54:26.127Z,996.67
2019-01-13T04:55:26.041Z,996.66
2019-01-13T04:56:25.949Z,996.64
2019-01-13T04:57:25.863Z,996.61
2019-01-13T04:58:25.829Z,996.64
2019-01-13T04:59:25.699Z,996.64
2019-01-13T05:00:25.612Z,996.65
2019-01-13T05:01:25.525Z,996.62
2019-01-13T05:02:25.438Z,996.64
2019-01-13T05:03:25.363Z,996.67
2019-01-13T05:04:25.263Z,996.64
2019-01-13T05:05:25.188Z,996.63
2019-01-13T05:06:25.102Z,996.65
2019-01-13T05:07:25.012Z,996.63
2019-01-13T05:08:24.926Z,996.61
2019-01-13T05:09:24.838Z,996.64
2019-01-13T05:10:24.750Z,996.62
2019-01-13T05:11:24.677Z,996.66
2019-01-13T05:12:24.588Z,996.68
2019-01-13T05:13:24.510Z,996.64
2019-01-13T05:14:24.416Z,996.60
2019-01-13T05:15:24.328Z,996.70
2019-01-13T05:16:24.253Z,996.62
2019-01-13T05:17:24.163Z,996.63
2019-01-13T05:18:24.078Z,996.61
2019-01-13T05:19:23.989Z,996.64
2019-01-13T05:20:23.905Z,996.63
2019-01-13T05:21:23.814Z,996.62
2019-01-13T05:22:23.729Z,996.59
2019-01-13T05:23:23.652Z,996.59
2019-01-13T05:24:23.564Z,996.63
2019-01-13T05:25:23.778Z,996.61
2019-01-13T05:26:23.393Z,996.61
2019-01-13T05:27:23.303Z,996.61
2019-01-13T05:28:23.218Z,996.61
2019-01-13T05:29:23.140Z,996.61
2019-01-13T05:30:23.053Z,996.62
2019-01-13T05:31:22.978Z,996.58
2019-01-13T05:32:22.878Z,996.54
2019-01-13T05:33:22.791Z,996.59
2019-01-13T05:34:22.715Z,996.57
2019-01-13T05:35:22.628Z,996.56
2019-01-13T05:36:22.540Z,996.51
2019-01-13T05:37:22.454Z,996.57
2019-01-13T05:38:22.367Z,996.55
2019-01-13T05:39:22.279Z,996.48
2019-01-13T05:40:22.193Z,996.36
2019-01-13T05:41:22.116Z,996.53
2019-01-13T05:42:22.029Z,996.51
2019-01-13T05:43:21.942Z,996.47
2019-01-13T05:44:21.857Z,996.50
2019-01-13T05:45:21.767Z,996.47
2019-01-13T05:46:21.693Z,996.40
2019-01-13T05:47:21.607Z,996.46
2019-01-13T05:48:21.517Z,996.44
2019-01-13T05:49:21.431Z,996.38
2019-01-13T05:50:21.342Z,996.36
2019-01-13T05:51:21.255Z,996.31
2019-01-13T05:52:21.180Z,996.38
2019-01-13T05:53:21.092Z,996.35
2019-01-13T05:54:21.006Z,996.36
2019-01-13T05:55:20.918Z,996.32
2019-01-13T05:56:20.831Z,996.31
2019-01-13T05:57:20.746Z,996.24
2019-01-13T05:58:20.668Z,996.23
2019-01-13T05:59:20.582Z,996.21
2019-01-13T06:00:20.499Z,996.20
2019-01-13T06:01:20.406Z,996.19
2019-01-13T06:02:20.332Z,996.20
2019-01-13T06:03:20.231Z,996.22
2019-01-13T06:04:20.157Z,996.13
2019-01-13T06:05:20.069Z,996.17
2019-01-13T06:06:19.982Z,996.13
2019-01-13T06:07:19.894Z,996.17
2019-01-13T06:08:19.807Z,996.16
2019-01-13T06:09:19.721Z,996.10
2019-01-13T06:10:19.643Z,996.07
2019-01-13T06:11:19.559Z,996.08
2019-01-13T06:12:19.469Z,996.08
2019-01-13T06:13:19.382Z,996.11
2019-01-13T06:14:19.298Z,996.08
2019-01-13T06:15:19.219Z,996.08
2019-01-13T06:16:19.133Z,996.03
2019-01-13T06:17:19.058Z,996.09
2019-01-13T06:18:18.959Z,996.06
2019-01-13T06:19:18.873Z,996.14
2019-01-13T06:20:18.784Z,996.12
2019-01-13T06:21:18.708Z,996.04
2019-01-13T06:22:18.620Z,996.03
2019-01-13T06:23:18.536Z,995.98
2019-01-13T06:24:18.446Z,996.04
2019-01-13T06:25:18.359Z,996.06
2019-01-13T06:26:18.271Z,996.00
2019-01-13T06:27:18.200Z,995.97
2019-01-13T06:28:18.109Z,996.00
2019-01-13T06:29:18.021Z,996.01
2019-01-13T06:30:17.934Z,995.97
2019-01-13T06:31:17.861Z,996.01
2019-01-13T06:32:17.759Z,996.01
2019-01-13T06:33:17.685Z,995.97
2019-01-13T06:34:17.611Z,995.99
2019-01-13T06:35:17.517Z,996.02
2019-01-13T06:36:17.422Z,995.97
2019-01-13T06:37:17.337Z,995.98
2019-01-13T06:38:17.252Z,996.01
2019-01-13T06:39:17.172Z,996.00
2019-01-13T06:40:17.085Z,995.98
2019-01-13T06:41:17.020Z,995.99
2019-01-13T06:42:16.910Z,996.02
2019-01-13T06:43:16.823Z,995.98
2019-01-13T06:44:16.748Z,995.99
2019-01-13T06:45:16.660Z,995.96
2019-01-13T06:46:16.572Z,995.94
2019-01-13T06:47:16.486Z,995.97
2019-01-13T06:48:16.398Z,995.97
2019-01-13T06:49:16.312Z,995.95
2019-01-13T06:50:16.237Z,995.91
2019-01-13T06:51:16.149Z,995.87
2019-01-13T06:52:16.062Z,995.97
2019-01-13T06:53:15.973Z,995.97
2019-01-13T06:54:15.887Z,996.01
2019-01-13T06:55:15.799Z,996.07
2019-01-13T06:56:15.724Z,996.05
2019-01-13T06:57:15.637Z,996.07
2019-01-13T06:58:15.549Z,996.07
2019-01-13T06:59:15.464Z,996.15
2019-01-13T07:00:15.390Z,996.04
2019-01-13T07:01:15.300Z,996.15
2019-01-13T07:02:15.217Z,996.13
2019-01-13T07:03:15.126Z,996.10
2019-01-13T07:04:15.039Z,996.12
2019-01-13T07:05:14.952Z,996.02
2019-01-13T07:06:14.875Z,996.04
2019-01-13T07:07:14.788Z,996.02
2019-01-13T07:08:14.700Z,995.99
2019-01-13T07:09:14.614Z,995.99
2019-01-13T07:10:14.576Z,995.99
2019-01-13T07:11:14.439Z,995.95
2019-01-13T07:12:14.365Z,995.90
2019-01-13T07:13:14.278Z,995.89
2019-01-13T07:14:14.192Z,995.90
2019-01-13T07:15:14.101Z,995.86
2019-01-13T07:16:14.021Z,995.81
2019-01-13T07:17:13.927Z,995.88
2019-01-13T07:18:13.852Z,995.85
2019-01-13T07:19:13.765Z,995.81
2019-01-13T07:20:13.694Z,995.80
2019-01-13T07:21:13.592Z,995.73
2019-01-13T07:22:13.503Z,995.71
2019-01-13T07:23:13.427Z,995.65
2019-01-13T07:24:13.340Z,995.77
2019-01-13T07:25:13.252Z,995.72
2019-01-13T07:26:13.165Z,995.66
2019-01-13T07:27:13.077Z,995.69
2019-01-13T07:28:13.002Z,995.56
2019-01-13T07:29:12.918Z,995.65
2019-01-13T07:30:12.828Z,995.61
2019-01-13T07:31:12.742Z,995.64
2019-01-13T07:32:12.653Z,995.59
2019-01-13T07:33:12.579Z,995.60
2019-01-13T07:34:12.492Z,995.56
2019-01-13T07:35:12.417Z,995.59
2019-01-13T07:36:12.316Z,995.57
2019-01-13T07:37:12.228Z,995.58
2019-01-13T07:38:12.145Z,995.60
2019-01-13T07:39:12.066Z,995.56
2019-01-13T07:40:11.978Z,995.54
2019-01-13T07:41:11.892Z,995.51
2019-01-13T07:42:11.805Z,995.48
2019-01-13T07:43:11.718Z,995.50
2019-01-13T07:44:11.631Z,995.47
2019-01-13T07:45:11.554Z,995.47
2019-01-13T07:46:11.470Z,995.44
2019-01-13T07:47:11.379Z,995.45
2019-01-13T07:48:11.293Z,995.38
2019-01-13T07:49:11.207Z,995.31
2019-01-13T07:50:11.129Z,995.32
2019-01-13T07:51:11.043Z,995.27
2019-01-13T07:52:10.955Z,995.30
2019-01-13T07:53:10.868Z,995.19
2019-01-13T07:54:10.780Z,995.22
2019-01-13T07:55:10.708Z,995.21
2019-01-13T07:56:10.618Z,995.24
2019-01-13T07:57:10.531Z,995.23
2019-01-13T07:58:10.443Z,995.22
2019-01-13T07:59:10.356Z,995.18
2019-01-13T08:00:10.280Z,995.20
2019-01-13T08:01:10.198Z,995.20
2019-01-13T08:02:10.106Z,995.22
2019-01-13T08:03:10.020Z,995.14
2019-01-13T08:04:09.931Z,995.18
2019-01-13T08:05:09.860Z,995.22
2019-01-13T08:06:09.770Z,995.16
2019-01-13T08:07:09.682Z,995.16
2019-01-13T08:08:09.594Z,995.15
2019-01-13T08:09:09.509Z,995.17
2019-01-13T08:10:09.432Z,995.11
2019-01-13T08:11:09.346Z,995.13
2019-01-13T08:12:09.257Z,995.09
2019-01-13T08:13:09.170Z,995.05
2019-01-13T08:14:09.082Z,995.06
2019-01-13T08:15:09.007Z,995.09
2019-01-13T08:16:08.922Z,995.04
2019-01-13T08:17:08.832Z,995.06
2019-01-13T08:18:08.746Z,995.09
2019-01-13T08:19:08.658Z,995.11
2019-01-13T08:20:08.583Z,995.04
2019-01-13T08:21:08.496Z,995.04
2019-01-13T08:22:08.409Z,995.06
2019-01-13T08:23:08.321Z,995.03
2019-01-13T08:24:08.233Z,994.98
2019-01-13T08:25:08.158Z,994.97
2019-01-13T08:26:08.071Z,994.95
2019-01-13T08:27:07.983Z,995.01
2019-01-13T08:28:07.897Z,994.97
2019-01-13T08:29:07.824Z,994.96
2019-01-13T08:30:07.734Z,994.93
2019-01-13T08:31:07.648Z,994.95
2019-01-13T08:32:07.559Z,994.81
2019-01-13T08:33:07.485Z,994.77
2019-01-13T08:34:07.385Z,994.79
2019-01-13T08:35:07.325Z,994.83
2019-01-13T08:36:07.224Z,994.80
2019-01-13T08:37:07.135Z,994.77
2019-01-13T08:38:07.049Z,994.75
2019-01-13T08:39:06.965Z,994.70
2019-01-13T08:40:06.885Z,994.71
2019-01-13T08:41:06.798Z,994.75
2019-01-13T08:42:06.723Z,994.70
2019-01-13T08:43:06.623Z,994.65
2019-01-13T08:44:06.537Z,994.64
2019-01-13T08:45:06.460Z,994.63
2019-01-13T08:46:06.374Z,994.58
2019-01-13T08:47:06.285Z,994.57
2019-01-13T08:48:06.201Z,994.63
2019-01-13T08:49:06.127Z,994.64
2019-01-13T08:50:06.036Z,994.63
2019-01-13T08:51:05.949Z,994.54
2019-01-13T08:52:05.863Z,994.65
2019-01-13T08:53:05.775Z,994.64
2019-01-13T08:54:05.706Z,994.56
2019-01-13T08:55:05.612Z,994.56
2019-01-13T08:56:05.525Z,994.57
2019-01-13T08:57:05.437Z,994.45
2019-01-13T08:58:05.378Z,994.46
2019-01-13T08:59:05.276Z,994.41
2019-01-13T09:00:05.187Z,994.33
2019-01-13T09:01:05.101Z,994.36
2019-01-13T09:02:05.013Z,994.32
2019-01-13T09:03:04.937Z,994.29
2019-01-13T09:04:04.850Z,994.28
2019-01-13T09:05:04.765Z,994.16
2019-01-13T09:06:04.678Z,994.14
2019-01-13T09:07:04.596Z,994.14
2019-01-13T09:08:04.513Z,994.15
2019-01-13T09:09:04.427Z,994.09
2019-01-13T09:10:04.340Z,994.12
2019-01-13T09:11:04.251Z,994.10
2019-01-13T09:12:04.167Z,994.06
2019-01-13T09:13:04.105Z,994.03
2019-01-13T09:14:04.002Z,994.00
2019-01-13T09:15:03.915Z,994.05
2019-01-13T09:16:03.827Z,994.08
2019-01-13T09:17:03.751Z,994.03
2019-01-13T09:18:03.663Z,993.99
2019-01-13T09:19:03.577Z,993.97
2019-01-13T09:20:03.495Z,994.03
2019-01-13T09:21:03.403Z,994.01
2019-01-13T09:22:03.326Z,994.05
2019-01-13T09:23:03.240Z,993.99
2019-01-13T09:24:03.153Z,993.89
2019-01-13T09:25:03.065Z,993.95
2019-01-13T09:26:02.982Z,993.94
2019-01-13T09:27:02.903Z,993.87
2019-01-13T09:28:03.562Z,993.88
2019-01-13T09:29:02.735Z,993.85
2019-01-13T09:30:02.654Z,993.83
2019-01-13T09:31:02.553Z,993.79
2019-01-13T09:32:02.485Z,993.77
2019-01-13T09:33:02.391Z,993.79
2019-01-13T09:34:02.304Z,993.79
2019-01-13T09:35:02.221Z,993.70
2019-01-13T09:36:02.129Z,993.68
2019-01-13T09:37:02.054Z,993.68
2019-01-13T09:38:01.967Z,993.70
2019-01-13T09:39:01.884Z,993.63
2019-01-13T09:40:01.792Z,993.61
2019-01-13T09:41:01.704Z,993.62
2019-01-13T09:42:01.635Z,993.54
2019-01-13T09:43:01.556Z,993.51
2019-01-13T09:44:01.455Z,993.48
2019-01-13T09:45:01.368Z,993.48
2019-01-13T09:46:01.284Z,993.42
2019-01-13T09:47:01.205Z,993.40
2019-01-13T09:48:01.118Z,993.47
2019-01-13T09:49:01.032Z,993.32
2019-01-13T09:50:00.955Z,993.33
2019-01-13T09:51:00.856Z,993.24
2019-01-13T09:52:00.770Z,993.27
2019-01-13T09:53:00.693Z,993.25
2019-01-13T09:54:00.606Z,993.19
2019-01-13T09:55:00.518Z,993.17
2019-01-13T09:56:00.431Z,993.20
2019-01-13T09:57:00.345Z,993.08
2019-01-13T09:58:00.268Z,993.17
2019-01-13T09:59:00.186Z,993.06
2019-01-13T10:00:00.262Z,993.02
2019-01-13T10:01:00.010Z,993.04
2019-01-13T10:01:59.920Z,993.07
2019-01-13T10:02:59.843Z,993.05
2019-01-13T10:03:59.757Z,993.10
2019-01-13T10:04:59.682Z,992.98
2019-01-13T10:05:59.582Z,993.00
2019-01-13T10:06:59.494Z,992.98
2019-01-13T10:07:59.419Z,992.89
2019-01-13T10:08:59.332Z,992.82
2019-01-13T10:09:59.244Z,992.83
2019-01-13T10:10:59.158Z,992.75
2019-01-13T10:11:59.070Z,992.71
2019-01-13T10:12:58.994Z,992.70
2019-01-13T10:13:58.909Z,992.67
2019-01-13T10:14:58.820Z,992.61
2019-01-13T10:15:58.734Z,992.57
2019-01-13T10:16:58.645Z,992.55
2019-01-13T10:17:58.573Z,992.58
2019-01-13T10:18:58.483Z,992.50
2019-01-13T10:19:58.395Z,992.48
2019-01-13T10:20:58.309Z,992.42
2019-01-13T10:21:58.234Z,992.38
2019-01-13T10:22:58.134Z,992.28
2019-01-13T10:23:58.068Z,992.30
2019-01-13T10:24:57.971Z,992.20
2019-01-13T10:25:57.888Z,992.19
2019-01-13T10:26:57.800Z,992.15
2019-01-13T10:27:57.710Z,992.17
2019-01-13T10:28:57.635Z,992.14
2019-01-13T10:29:57.546Z,992.12
2019-01-13T10:31:03.137Z,992.05
2019-01-13T10:31:57.372Z,992.04
2019-01-13T10:32:57.289Z,992.00
2019-01-13T10:33:57.210Z,991.99
2019-01-13T10:34:57.122Z,992.00
2019-01-13T10:35:57.035Z,991.93
2019-01-13T10:36:56.947Z,991.91
2019-01-13T10:37:56.861Z,991.88
2019-01-13T10:38:56.785Z,991.85
2019-01-13T10:39:56.714Z,991.84
2019-01-13T10:40:56.610Z,991.79
2019-01-13T10:41:56.523Z,991.76
2019-01-13T10:42:56.436Z,991.69
2019-01-13T10:43:56.362Z,991.70
2019-01-13T10:44:56.273Z,991.65
2019-01-13T10:45:56.186Z,991.66
2019-01-13T10:46:56.098Z,991.56
2019-01-13T10:47:56.023Z,991.62
2019-01-13T10:48:55.937Z,991.64
2019-01-13T10:49:55.862Z,991.53
2019-01-13T10:50:55.762Z,991.47
2019-01-13T10:51:55.673Z,991.43
2019-01-13T10:52:55.587Z,991.37
2019-01-13T10:53:55.513Z,991.37
2019-01-13T10:54:55.424Z,991.35
2019-01-13T10:55:55.587Z,991.31
2019-01-13T10:56:55.250Z,991.27
2019-01-13T10:57:55.162Z,991.23
2019-01-13T10:58:55.076Z,991.22
2019-01-13T10:59:55.000Z,991.19
2019-01-13T11:00:54.914Z,991.18
2019-01-13T11:01:54.825Z,991.11
2019-01-13T11:03:01.721Z,991.07
2019-01-13T11:03:54.663Z,991.07
2019-01-13T11:04:54.575Z,991.00
2019-01-13T11:05:54.488Z,990.92
2019-01-13T11:06:54.414Z,990.90
2019-01-13T11:07:54.314Z,990.95
2019-01-13T11:08:54.227Z,990.83
2019-01-13T11:09:54.151Z,990.85
2019-01-13T11:10:54.064Z,990.87
2019-01-13T11:11:53.980Z,990.85
2019-01-13T11:12:53.890Z,990.87
2019-01-13T11:13:53.802Z,990.73
2019-01-13T11:14:53.727Z,990.80
2019-01-13T11:15:53.639Z,990.74
2019-01-13T11:16:53.551Z,990.72
2019-01-13T11:17:53.465Z,990.66
2019-01-13T11:18:53.378Z,990.62
2019-01-13T11:19:53.302Z,990.53
2019-01-13T11:20:53.215Z,990.47
2019-01-13T11:21:53.140Z,990.53
2019-01-13T11:22:53.042Z,990.54
2019-01-13T11:23:52.952Z,990.45
2019-01-13T11:24:52.878Z,990.42
2019-01-13T11:25:52.791Z,990.38
2019-01-13T11:26:52.703Z,990.40
2019-01-13T11:27:52.616Z,990.32
2019-01-13T11:28:52.528Z,990.21
2019-01-13T11:29:52.453Z,990.24
2019-01-13T11:30:52.366Z,990.35
2019-01-13T11:31:52.292Z,990.23
2019-01-13T11:32:52.193Z,990.20
2019-01-13T11:33:52.104Z,990.17
2019-01-13T11:34:52.021Z,990.11
2019-01-13T11:35:51.942Z,990.07
2019-01-13T11:36:51.854Z,990.08
2019-01-13T11:37:51.768Z,990.00
2019-01-13T11:38:51.679Z,989.92
2019-01-13T11:39:51.592Z,989.99
2019-01-13T11:40:51.521Z,990.00
2019-01-13T11:41:51.429Z,989.89
2019-01-13T11:42:51.343Z,989.92
2019-01-13T11:43:51.254Z,989.87
2019-01-13T11:44:51.170Z,989.79
2019-01-13T11:45:51.093Z,989.80
2019-01-13T11:46:51.005Z,989.70
2019-01-13T11:47:50.918Z,989.74
2019-01-13T11:48:50.883Z,989.70
2019-01-13T11:49:50.743Z,989.64
2019-01-13T11:50:50.669Z,989.61
2019-01-13T11:51:50.580Z,989.53
2019-01-13T11:52:50.498Z,989.51
2019-01-13T11:53:50.405Z,989.55
2019-01-13T11:54:50.320Z,989.46
2019-01-13T11:55:50.244Z,989.50
2019-01-13T11:56:50.157Z,989.48
2019-01-13T11:57:50.069Z,989.47
2019-01-13T11:58:49.981Z,989.46
2019-01-13T11:59:49.895Z,989.37
2019-01-13T12:00:49.870Z,989.47
2019-01-13T12:01:49.732Z,989.34
2019-01-13T12:02:49.644Z,989.29
2019-01-13T12:03:49.556Z,989.23
2019-01-13T12:04:49.470Z,989.18
2019-01-13T12:05:49.385Z,989.10
2019-01-13T12:06:49.306Z,989.09
2019-01-13T12:07:49.220Z,989.07
2019-01-13T12:08:49.132Z,988.96
2019-01-13T12:09:49.046Z,989.01
2019-01-13T12:10:48.970Z,989.00
2019-01-13T12:11:48.883Z,989.02
2019-01-13T12:12:48.796Z,988.98
2019-01-13T12:13:48.708Z,988.91
2019-01-13T12:14:48.621Z,988.88
2019-01-13T12:15:48.533Z,988.86
2019-01-13T12:16:48.459Z,988.79
2019-01-13T12:17:48.372Z,988.78
2019-01-13T12:18:48.283Z,988.72
2019-01-13T12:19:48.196Z,988.73
2019-01-13T12:20:48.109Z,988.72
2019-01-13T12:21:48.033Z,988.65
2019-01-13T12:22:47.947Z,988.67
2019-01-13T12:23:47.859Z,988.63
2019-01-13T12:24:47.772Z,988.65
2019-01-13T12:25:52.629Z,988.55
2019-01-13T12:26:47.597Z,988.52
2019-01-13T12:27:47.522Z,988.52